Time;durP1;ratioP1;P1;durP2;ratioP2;P2;SDS_P1;SDS_P2;PMS_P1;PMS_P2;Temp;Humidity;BMP_temperature;BMP_pressure;BME280_temperature;BME280_humidity;BME280_pressure;Samples;Min_cycle;Max_cycle;Signal;HPM_P1;HPM_P2
2022/06/08 00:01:03;;;;;;;4.67;3.20;;;14.50;1.00;;;;;;5066444;28;20437;-71
2022/06/08 00:03:54;;;;;;;4.90;3.37;;;14.50;1.00;;;;;;5068186;28;20416;-71
2022/06/08 00:06:20;;;;;;;5.50;3.90;;;14.50;1.00;;;;;;5060940;28;20494;-71
2022/06/08 00:08:46;;;;;;;5.57;3.40;;;14.60;1.00;;;;;;5067775;28;20783;-71
2022/06/08 00:11:12;;;;;;;3.80;3.40;;;14.60;1.00;;;;;;5068904;28;20433;-71
2022/06/08 00:13:38;;;;;;;7.70;3.50;;;14.60;1.00;;;;;;5068861;28;20258;-70
2022/06/08 00:16:05;;;;;;;3.80;3.10;;;14.60;1.00;;;;;;5083691;28;20209;-70
2022/06/08 00:18:31;;;;;;;4.67;4.27;;;14.60;1.00;;;;;;5087995;28;20410;-70
2022/06/08 00:20:57;;;;;;;3.73;3.43;;;14.60;1.00;;;;;;5088268;28;20514;-71
2022/06/08 00:23:22;;;;;;;4.10;3.43;;;14.60;1.00;;;;;;5090194;28;20170;-71
2022/06/08 00:25:48;;;;;;;4.53;4.10;;;14.50;1.00;;;;;;5092904;28;20408;-70
2022/06/08 00:28:15;;;;;;;4.60;3.97;;;14.50;1.00;;;;;;5076673;28;20517;-70
2022/06/08 00:30:41;;;;;;;12.13;4.67;;;14.40;1.00;;;;;;5072008;28;20217;-70
2022/06/08 00:33:07;;;;;;;4.60;4.07;;;14.30;1.00;;;;;;5072919;28;20787;-70
2022/06/08 00:35:33;;;;;;;5.10;3.73;;;14.30;1.00;;;;;;5072175;28;20480;-70
2022/06/08 00:37:59;;;;;;;7.50;4.23;;;14.30;1.00;;;;;;5071867;28;20173;-71
2022/06/08 00:41:04;;;;;;;5.20;4.30;;;14.20;1.00;;;;;;5084965;22;20209;-68
2022/06/08 00:43:30;;;;;;;6.43;4.90;;;14.20;1.00;;;;;;5046965;28;20264;-68
2022/06/08 00:45:56;;;;;;;9.30;5.40;;;14.20;1.00;;;;;;5051770;28;20444;-69
2022/06/08 00:48:26;;;;;;;11.40;6.27;;;14.20;1.00;;;;;;5051375;28;20401;-71
2022/06/08 00:50:54;;;;;;;9.90;7.30;;;14.20;1.00;;;;;;5051930;28;20800;-68
2022/06/08 00:53:26;;;;;;;12.40;7.43;;;14.20;1.00;;;;;;5051728;28;20918;-67
2022/06/08 00:55:53;;;;;;;9.70;7.63;;;14.20;1.00;;;;;;5051687;28;20457;-69
2022/06/08 00:58:26;;;;;;;10.37;7.10;;;14.20;1.00;;;;;;5051200;28;20440;-69
2022/06/08 01:00:53;;;;;;;11.23;9.40;;;14.20;1.00;;;;;;5038605;28;20895;-70
2022/06/08 01:03:19;;;;;;;11.37;9.97;;;14.10;1.00;;;;;;5027730;28;20775;-70
2022/06/08 01:05:58;;;;;;;18.83;9.60;;;14.10;1.00;;;;;;5011862;28;20416;-69
2022/06/08 01:08:53;;;;;;;10.50;9.13;;;14.10;1.00;;;;;;5011338;28;20407;-67
2022/06/08 01:11:36;;;;;;;9.80;8.53;;;14.10;1.00;;;;;;5011291;28;20439;-67
2022/06/08 01:14:06;;;;;;;10.60;8.20;;;14.20;1.00;;;;;;5011857;28;20403;-66
2022/06/08 01:16:32;;;;;;;12.37;9.00;;;14.10;1.00;;;;;;5050030;28;20406;-69
2022/06/08 01:19:00;;;;;;;14.13;10.30;;;14.10;1.00;;;;;;5050717;28;20398;-68
2022/06/08 01:21:27;;;;;;;11.00;9.07;;;14.00;1.00;;;;;;5050831;28;21229;-68
2022/06/08 01:24:00;;;;;;;10.73;9.40;;;14.00;1.00;;;;;;5050962;28;20409;-68
2022/06/08 01:26:39;;;;;;;13.70;9.43;;;14.00;1.00;;;;;;5051128;28;20468;-67
2022/06/08 01:29:22;;;;;;;24.50;10.63;;;14.00;1.00;;;;;;5050511;28;20479;-68
2022/06/08 01:32:15;;;;;;;21.30;10.23;;;14.00;1.00;;;;;;5050479;28;20421;-68
2022/06/08 01:35:08;;;;;;;15.80;10.27;;;14.00;1.00;;;;;;5049741;28;20452;-69
2022/06/08 01:37:45;;;;;;;13.73;10.43;;;14.00;1.00;;;;;;5050505;28;20428;-70
2022/06/08 01:40:30;;;;;;;16.23;12.53;;;13.90;1.00;;;;;;5050563;28;20412;-68
2022/06/08 01:43:15;;;;;;;18.70;13.20;;;13.90;1.00;;;;;;5051052;28;20432;-69
2022/06/08 01:46:13;;;;;;;23.20;14.13;;;13.90;1.00;;;;;;5050074;28;20459;-66
2022/06/08 01:48:59;;;;;;;21.30;15.20;;;13.90;1.00;;;;;;5050386;28;20434;-68
2022/06/08 01:51:47;;;;;;;22.53;13.80;;;13.90;1.00;;;;;;5036602;28;20430;-68
2022/06/08 01:54:56;;;;;;;19.80;14.20;;;13.90;1.00;;;;;;5030943;28;20438;-68
2022/06/08 01:57:44;;;;;;;23.70;15.67;;;13.90;1.00;;;;;;5031007;28;20409;-69
2022/06/08 02:00:14;;;;;;;27.80;16.40;;;13.90;1.00;;;;;;5030018;28;20405;-69
2022/06/08 02:03:04;;;;;;;21.70;15.13;;;13.80;1.00;;;;;;5046422;28;20834;-69
2022/06/08 02:05:44;;;;;;;26.40;15.53;;;13.80;1.00;;;;;;5022984;28;20816;-70
2022/06/08 02:08:24;;;;;;;21.33;14.60;;;13.80;1.00;;;;;;5029542;28;20410;-69
2022/06/08 02:10:59;;;;;;;16.13;13.30;;;13.90;1.00;;;;;;5030198;28;20430;-69
2022/06/08 02:13:35;;;;;;;23.33;14.10;;;13.90;1.00;;;;;;5030540;28;20424;-69
2022/06/08 02:16:09;;;;;;;21.30;14.63;;;13.90;1.00;;;;;;5044603;28;20479;-68
2022/06/08 02:18:44;;;;;;;16.67;11.40;;;14.00;1.00;;;;;;5049413;28;20512;-69
2022/06/08 02:21:35;;;;;;;16.60;12.23;;;14.00;1.00;;;;;;5049402;28;20440;-69
2022/06/08 02:24:05;;;;;;;14.87;11.80;;;14.00;1.00;;;;;;5038499;28;20432;-70
2022/06/08 02:26:39;;;;;;;16.97;11.77;;;13.90;1.00;;;;;;5050050;28;20417;-69
2022/06/08 02:29:20;;;;;;;18.80;11.63;;;13.90;1.00;;;;;;5049222;28;20894;-70
2022/06/08 02:31:53;;;;;;;14.47;10.67;;;13.90;1.00;;;;;;5049440;28;20836;-69
2022/06/08 02:34:36;;;;;;;12.63;9.40;;;13.90;1.00;;;;;;5049827;28;20444;-70
2022/06/08 02:37:15;;;;;;;10.63;9.30;;;13.90;1.00;;;;;;5048486;28;20400;-69
2022/06/08 02:39:49;;;;;;;12.50;10.00;;;13.90;1.00;;;;;;5049078;28;20413;-69
2022/06/08 02:42:27;;;;;;;12.20;10.80;;;14.00;1.00;;;;;;5049333;28;20518;-69
2022/06/08 02:44:57;;;;;;;12.57;10.60;;;14.00;1.00;;;;;;5048985;28;20441;-69
2022/06/08 02:47:31;;;;;;;14.43;10.07;;;14.00;1.00;;;;;;5064379;28;20532;-70
2022/06/08 02:50:01;;;;;;;11.97;9.60;;;13.90;1.00;;;;;;5047166;28;21054;-70
2022/06/08 02:52:28;;;;;;;11.07;10.03;;;13.90;1.00;;;;;;5028822;28;20450;-69
2022/06/08 02:54:54;;;;;;;11.23;9.40;;;13.80;1.00;;;;;;5029612;28;20601;-69
2022/06/08 02:57:49;;;;;;;11.07;9.97;;;13.80;1.00;;;;;;5029229;28;21072;-70
2022/06/08 03:00:22;;;;;;;12.87;10.07;;;13.80;1.00;;;;;;5029258;28;20465;-70
2022/06/08 03:03:16;;;;;;;10.47;9.30;;;13.90;1.00;;;;;;5029906;28;20402;-70
2022/06/08 03:06:02;;;;;;;13.40;10.13;;;14.00;1.00;;;;;;5017828;28;20473;-68
2022/06/08 03:08:37;;;;;;;11.20;9.50;;;14.00;1.00;;;;;;5009543;28;20407;-68
2022/06/08 03:11:06;;;;;;;19.50;11.27;;;14.00;1.00;;;;;;5009644;28;20422;-70
2022/06/08 03:13:41;;;;;;;12.93;10.60;;;13.90;1.00;;;;;;5009664;28;20453;-70
2022/06/08 03:16:22;;;;;;;23.17;10.37;;;13.90;1.00;;;;;;5041299;28;21436;-69
2022/06/08 03:18:48;;;;;;;10.40;9.30;;;13.90;1.00;;;;;;5048515;28;20401;-70
2022/06/08 03:21:13;;;;;;;10.50;9.30;;;13.80;1.00;;;;;;5048534;28;20418;-68
2022/06/08 03:23:39;;;;;;;11.20;10.17;;;13.80;1.00;;;;;;5048550;28;20164;-69
2022/06/08 03:26:05;;;;;;;14.90;7.43;;;13.80;1.00;;;;;;5048953;28;20627;-71
2022/06/08 03:28:33;;;;;;;9.00;8.10;;;13.80;1.00;;;;;;5048544;28;20179;-70
2022/06/08 03:30:58;;;;;;;8.20;6.77;;;13.80;1.00;;;;;;5048902;28;20866;-69
2022/06/08 03:33:24;;;;;;;8.30;7.13;;;13.70;1.00;;;;;;5048846;28;20414;-70
2022/06/08 03:35:50;;;;;;;8.20;7.40;;;13.70;1.00;;;;;;5048502;28;20728;-69
2022/06/08 03:38:16;;;;;;;7.57;6.80;;;13.70;1.00;;;;;;5048095;28;20189;-68
2022/06/08 03:40:42;;;;;;;9.43;6.70;;;13.70;1.00;;;;;;5048899;28;20437;-69
2022/06/08 03:43:07;;;;;;;8.10;6.83;;;13.70;1.00;;;;;;5048845;28;20531;-70
2022/06/08 03:45:44;;;;;;;19.17;6.70;;;13.80;1.00;;;;;;5049112;28;20205;-71
2022/06/08 03:48:10;;;;;;;5.67;5.10;;;13.80;1.00;;;;;;5048718;28;20178;-70
2022/06/08 03:50:40;;;;;;;6.43;5.27;;;13.90;1.00;;;;;;5041359;28;20441;-70
2022/06/08 03:53:13;;;;;;;5.87;4.70;;;14.10;1.00;;;;;;5029826;28;20409;-70
2022/06/08 03:55:39;;;;;;;8.73;5.40;;;14.20;1.00;;;;;;5028842;28;20450;-69
2022/06/08 03:58:06;;;;;;;6.77;4.90;;;14.40;1.00;;;;;;5028006;28;20394;-68
2022/06/08 04:00:33;;;;;;;16.47;6.30;;;14.60;1.00;;;;;;5028565;28;20195;-71
2022/06/08 04:03:00;;;;;;;10.97;5.60;;;14.70;1.00;;;;;;5027002;28;20540;-70
2022/06/08 04:05:26;;;;;;;7.90;5.03;;;14.80;1.00;;;;;;5008544;28;20967;-71
2022/06/08 04:07:52;;;;;;;5.70;5.20;;;15.00;1.00;;;;;;5008529;28;20437;-70
2022/06/08 04:10:18;;;;;;;10.13;5.47;;;15.30;99.90;;;;;;5009070;28;20403;-71
2022/06/08 04:12:43;;;;;;;8.20;4.90;;;15.50;55.40;;;;;;5009986;28;20176;-71
2022/06/08 04:15:09;;;;;;;9.07;5.20;;;15.60;1.00;;;;;;5027691;28;20244;-72
2022/06/08 04:17:35;;;;;;;6.60;6.00;;;15.80;1.00;;;;;;5014778;28;20164;-68
2022/06/08 04:20:00;;;;;;;8.40;6.10;;;15.90;99.90;;;;;;5008921;28;20449;-69
2022/06/08 04:22:31;;;;;;;8.27;6.33;;;15.90;1.00;;;;;;5008838;28;20541;-70
2022/06/08 04:25:00;;;;;;;7.73;6.10;;;15.70;1.00;;;;;;5009307;28;20181;-70
2022/06/08 04:27:27;;;;;;;9.60;7.47;;;15.60;99.90;;;;;;5004870;28;20502;-68
2022/06/08 04:29:54;;;;;;;7.43;6.73;;;15.30;1.00;;;;;;5020061;28;20436;-70
2022/06/08 04:32:20;;;;;;;13.70;8.17;;;15.40;1.00;;;;;;5031702;28;20462;-68
2022/06/08 04:34:46;;;;;;;7.57;6.87;;;15.40;1.00;;;;;;5028422;28;20802;-70
2022/06/08 04:37:12;;;;;;;19.33;8.13;;;15.50;1.00;;;;;;5028377;28;20410;-71
2022/06/08 04:39:38;;;;;;;8.23;7.43;;;15.50;1.00;;;;;;5012962;28;20243;-68
2022/06/08 04:42:05;;;;;;;16.60;8.30;;;15.60;1.00;;;;;;5017593;28;21198;-69
2022/06/08 04:44:32;;;;;;;19.10;8.30;;;15.80;1.00;;;;;;5021757;28;20176;-69
2022/06/08 04:46:58;;;;;;;19.93;11.30;;;15.80;1.00;;;;;;5027712;28;20406;-68
2022/06/08 04:49:24;;;;;;;16.30;12.53;;;16.00;99.90;;;;;;5029315;28;20479;-70
2022/06/08 04:51:50;;;;;;;18.90;12.80;;;16.00;1.00;;;;;;5027646;28;20195;-71
2022/06/08 04:54:16;;;;;;;13.27;11.83;;;16.00;16.60;;;;;;5028140;28;20172;-69
2022/06/08 04:56:41;;;;;;;13.03;10.93;;;16.10;1.00;;;;;;5028376;28;20572;-74
2022/06/08 04:59:09;;;;;;;18.60;10.70;;;16.10;1.00;;;;;;5025782;28;20456;-73
2022/06/08 05:01:34;;;;;;;14.90;11.07;;;16.20;1.00;;;;;;5021106;28;20241;-69
2022/06/08 05:04:00;;;;;;;19.60;12.40;;;16.20;1.00;;;;;;5028435;28;20511;-70
2022/06/08 05:06:26;;;;;;;14.70;12.23;;;16.20;1.00;;;;;;5027780;28;20180;-69
2022/06/08 05:08:52;;;;;;;14.67;13.10;;;16.20;1.00;;;;;;5026589;28;20636;-71
2022/06/08 05:11:17;;;;;;;20.80;13.80;;;16.30;1.00;;;;;;5030173;28;20270;-71
2022/06/08 05:13:43;;;;;;;17.47;14.93;;;16.30;1.00;;;;;;5028447;28;20218;-71
2022/06/08 05:16:09;;;;;;;19.00;13.70;;;16.30;1.00;;;;;;5028384;28;20227;-70
2022/06/08 05:18:35;;;;;;;16.67;13.40;;;16.40;99.90;;;;;;5028027;28;20221;-70
2022/06/08 05:21:01;;;;;;;13.80;11.23;;;16.30;99.90;;;;;;5026831;28;20195;-72
2022/06/08 05:23:30;;;;;;;15.57;11.70;;;16.30;13.80;;;;;;5028126;28;20505;-71
2022/06/08 05:25:56;;;;;;;12.70;9.50;;;16.40;1.00;;;;;;5028936;28;20418;-71
2022/06/08 05:28:22;;;;;;;13.10;9.20;;;16.40;1.00;;;;;;5028764;28;20497;-70
2022/06/08 05:30:49;;;;;;;9.23;8.27;;;16.50;1.00;;;;;;5028812;28;20192;-70
2022/06/08 05:33:15;;;;;;;15.67;8.47;;;16.70;90.80;;;;;;5030169;28;20182;-72
2022/06/08 05:35:41;;;;;;;18.57;8.90;;;16.80;1.00;;;;;;5029410;28;20449;-72
2022/06/08 05:38:07;;;;;;;16.47;8.87;;;16.80;99.90;;;;;;5029162;28;20498;-69
2022/06/08 05:40:34;;;;;;;11.73;9.77;;;16.60;99.90;;;;;;5029875;28;20192;-69
2022/06/08 05:43:00;;;;;;;12.07;8.53;;;16.30;1.00;;;;;;5018261;28;20191;-71
2022/06/08 05:45:29;;;;;;;14.83;8.80;;;16.00;59.10;;;;;;5029265;28;20407;-70
2022/06/08 05:47:55;;;;;;;12.70;10.77;;;16.00;99.90;;;;;;5029770;28;20410;-72
2022/06/08 05:50:22;;;;;;;15.70;9.37;;;16.10;99.90;;;;;;5029699;28;20794;-72
2022/06/08 05:52:48;;;;;;;14.07;8.27;;;16.20;99.90;;;;;;5030259;28;20444;-71
2022/06/08 05:55:15;;;;;;;23.60;10.20;;;16.20;99.90;;;;;;5029455;28;20519;-71
2022/06/08 05:57:41;;;;;;;17.33;15.53;;;16.70;1.00;;;;;;5028934;28;20609;-71
2022/06/08 06:00:12;;;;;;;12.50;10.10;;;17.30;1.00;;;;;;5028170;28;20421;-71
2022/06/08 06:02:38;;;;;;;16.93;11.13;;;17.70;80.90;;;;;;5041154;28;20414;-70
2022/06/08 06:05:04;;;;;;;13.57;11.00;;;18.20;1.00;;;;;;5028225;28;20735;-70
2022/06/08 06:07:30;;;;;;;14.17;10.80;;;19.10;99.90;;;;;;5027928;28;20485;-69
2022/06/08 06:10:00;;;;;;;12.50;11.37;;;19.70;1.00;;;;;;5028174;28;20561;-69
2022/06/08 06:12:25;;;;;;;12.57;11.27;;;20.30;1.00;;;;;;5028347;28;20287;-69
2022/06/08 06:14:51;;;;;;;14.67;12.47;;;21.30;1.00;;;;;;5033331;28;21162;-70
2022/06/08 06:17:17;;;;;;;13.27;11.87;;;22.20;99.90;;;;;;5048016;28;20166;-70
2022/06/08 06:19:42;;;;;;;12.73;11.63;;;23.10;99.90;;;;;;5048204;28;20655;-70
2022/06/08 06:22:37;;;;;;;13.73;11.50;;;23.80;99.90;;;;;;5025342;28;20796;-69
2022/06/08 06:25:05;;;;;;;12.90;11.57;;;24.90;99.90;;;;;;5028240;28;20356;-69
2022/06/08 06:27:31;;;;;;;12.93;11.63;;;25.20;99.90;;;;;;5028223;28;20407;-70
2022/06/08 06:29:57;;;;;;;12.10;11.00;;;25.70;99.90;;;;;;5026781;28;20487;-68
2022/06/08 06:32:28;;;;;;;13.47;12.13;;;25.50;99.90;;;;;;5029880;28;20434;-66
2022/06/08 06:35:01;;;;;;;13.33;11.90;;;26.00;99.90;;;;;;5046570;28;20225;-67
2022/06/08 06:37:28;;;;;;;12.83;11.60;;;25.10;99.90;;;;;;5043711;28;20434;-70
2022/06/08 06:39:54;;;;;;;12.63;11.33;;;25.30;99.90;;;;;;5030313;28;20902;-70
2022/06/08 06:42:25;;;;;;;17.03;11.97;;;26.30;99.90;;;;;;5082984;22;20878;-70
2022/06/08 06:44:51;;;;;;;12.23;11.30;;;27.30;99.90;;;;;;5084086;28;20420;-72
2022/06/08 06:47:18;;;;;;;12.73;11.60;;;27.80;99.90;;;;;;5068555;28;20508;-71
2022/06/08 06:49:44;;;;;;;12.90;11.90;;;28.40;99.90;;;;;;5068387;28;20486;-70
2022/06/08 06:52:12;;;;;;;14.10;11.30;;;28.10;99.90;;;;;;5082904;28;20446;-69
2022/06/08 06:54:38;;;;;;;27.73;25.30;;;28.20;99.90;;;;;;5088800;28;20244;-70
2022/06/08 06:57:04;;;;;;;14.20;12.73;;;28.90;99.90;;;;;;5089158;28;20398;-69
2022/06/08 06:59:30;;;;;;;12.27;11.17;;;29.40;99.90;;;;;;5088872;28;20400;-70
2022/06/08 07:01:56;;;;;;;12.13;10.57;;;29.20;99.90;;;;;;5088711;28;20185;-70
2022/06/08 07:04:22;;;;;;;11.90;10.80;;;28.70;99.90;;;;;;5084720;28;20519;-70
2022/06/08 07:06:48;;;;;;;10.20;9.40;;;27.80;99.90;;;;;;5083154;28;20418;-70
2022/06/08 07:09:13;;;;;;;12.60;11.33;;;26.90;99.90;;;;;;5088033;28;20168;-70
2022/06/08 07:11:40;;;;;;;12.07;10.97;;;26.50;99.90;;;;;;5088541;28;20550;-69
2022/06/08 07:14:11;;;;;;;10.87;9.77;;;26.80;99.90;;;;;;5088404;28;20168;-69
2022/06/08 07:16:36;;;;;;;11.87;10.77;;;26.30;99.90;;;;;;5068050;28;20404;-69
2022/06/08 07:19:03;;;;;;;9.67;8.77;;;26.70;99.90;;;;;;5067771;28;20515;-71
2022/06/08 07:21:28;;;;;;;14.87;7.70;;;27.30;99.90;;;;;;5068051;28;20186;-71
2022/06/08 07:23:55;;;;;;;8.87;7.97;;;28.20;99.90;;;;;;5068124;28;20448;-71
2022/06/08 07:26:24;;;;;;;9.53;8.40;;;28.80;99.90;;;;;;5069074;28;20227;-71
2022/06/08 07:28:53;;;;;;;10.33;8.67;;;28.60;99.90;;;;;;5068157;28;21205;-72
2022/06/08 07:31:19;;;;;;;8.03;7.30;;;28.90;99.90;;;;;;5069177;28;20423;-70
2022/06/08 07:33:46;;;;;;;10.40;8.10;;;29.40;99.90;;;;;;5068134;28;20400;-76
2022/06/08 07:36:12;;;;;;;9.50;8.27;;;29.80;99.90;;;;;;5067727;28;20447;-71
2022/06/08 07:38:38;;;;;;;8.47;7.57;;;30.30;99.90;;;;;;5067155;28;20883;-73
2022/06/08 07:41:03;;;;;;;8.07;7.47;;;30.10;99.90;;;;;;5072385;28;20208;-73
2022/06/08 07:43:29;;;;;;;16.40;7.03;;;30.70;99.90;;;;;;5088270;28;20209;-72
2022/06/08 07:45:55;;;;;;;9.73;7.20;;;31.00;99.90;;;;;;5087722;28;20171;-71
2022/06/08 07:51:05;;;;;;;8.73;7.83;;;31.40;97.90;;;;;;5087656;28;20294;-72
2022/06/08 07:53:31;;;;;;;8.50;7.57;;;31.70;92.00;;;;;;5087564;28;20403;-72
2022/06/08 07:55:56;;;;;;;7.77;6.30;;;32.00;81.90;;;;;;5087440;28;20270;-71
2022/06/08 07:58:22;;;;;;;6.10;5.50;;;32.60;71.30;;;;;;5087594;28;20218;-72
2022/06/08 08:00:48;;;;;;;7.43;6.83;;;33.10;61.50;;;;;;5087472;28;20195;-73
2022/06/08 08:03:15;;;;;;;6.30;5.73;;;33.20;55.20;;;;;;5089025;28;20176;-71
2022/06/08 08:05:41;;;;;;;6.00;5.20;;;32.80;49.70;;;;;;5080317;28;20229;-73
2022/06/08 08:08:07;;;;;;;7.63;3.87;;;33.20;46.10;;;;;;5087441;28;20282;-70
2022/06/08 08:10:33;;;;;;;5.20;3.87;;;32.50;39.40;;;;;;5088352;28;20223;-71
2022/06/08 08:12:59;;;;;;;7.73;3.83;;;32.40;39.20;;;;;;5088689;28;20165;-70
2022/06/08 08:15:26;;;;;;;8.30;3.57;;;31.80;34.00;;;;;;5088054;28;20846;-73
2022/06/08 08:17:52;;;;;;;6.13;3.80;;;33.10;33.40;;;;;;5088073;28;20403;-72
2022/06/08 08:20:19;;;;;;;4.73;3.27;;;32.70;30.50;;;;;;5087462;28;20438;-71
2022/06/08 08:22:48;;;;;;;4.47;2.97;;;33.10;27.50;;;;;;5088492;28;20410;-73
2022/06/08 08:25:15;;;;;;;5.90;4.20;;;33.90;24.30;;;;;;5088915;28;20176;-71
2022/06/08 08:27:42;;;;;;;6.50;4.23;;;34.30;21.50;;;;;;5088332;28;20253;-71
2022/06/08 08:30:10;;;;;;;7.27;4.50;;;35.00;19.60;;;;;;5088125;28;20169;-71
2022/06/08 08:32:36;;;;;;;8.52;4.05;;;35.50;17.00;;;;;;5088702;28;20656;-72
2022/06/08 08:35:03;;;;;;;4.95;3.15;;;35.30;13.40;;;;;;5088545;28;20200;-73
2022/06/08 08:37:30;;;;;;;4.55;2.58;;;35.80;9.90;;;;;;5086610;28;20252;-73
2022/06/08 08:39:56;;;;;;;5.00;2.78;;;35.00;5.80;;;;;;5088340;28;20173;-73
2022/06/08 08:42:22;;;;;;;5.82;2.40;;;34.60;4.00;;;;;;5088907;28;20215;-74
2022/06/08 08:44:53;;;;;;;4.30;2.20;;;35.20;1.70;;;;;;5091460;28;20527;-72
2022/06/08 08:47:57;;;;;;;7.47;2.57;;;33.30;1.00;;;;;;5092860;28;20172;-75
2022/06/08 08:50:25;;;;;;;4.97;2.40;;;31.60;1.00;;;;;;5092112;28;20179;-72
2022/06/08 08:53:01;;;;;;;3.70;2.27;;;30.10;1.00;;;;;;5091963;28;20454;-72
2022/06/08 08:55:32;;;;;;;5.07;2.70;;;28.50;1.00;;;;;;5092351;28;20434;-72
2022/06/08 08:58:03;;;;;;;3.57;2.00;;;30.20;1.00;;;;;;5092069;28;20426;-71
2022/06/08 09:00:39;;;;;;;6.00;2.37;;;30.70;1.00;;;;;;5099758;28;20411;-73
2022/06/08 09:03:39;;;;;;;5.20;2.50;;;32.30;1.00;;;;;;5093888;28;20413;-73
2022/06/08 09:06:18;;;;;;;5.63;1.33;;;34.10;1.00;;;;;;5093234;28;20391;-73
2022/06/08 09:08:50;;;;;;;11.10;2.60;;;32.80;1.00;;;;;;5091782;28;20762;-72
2022/06/08 09:11:22;;;;;;;3.30;2.30;;;34.10;1.00;;;;;;5093665;28;20434;-73
2022/06/08 09:14:12;;;;;;;3.90;2.80;;;34.70;1.00;;;;;;5092836;28;20164;-73
2022/06/08 09:16:47;;;;;;;6.37;4.10;;;35.00;1.00;;;;;;5072141;28;20170;-71
2022/06/08 09:19:24;;;;;;;13.18;2.58;;;36.00;1.00;;;;;;5072805;28;20169;-71
2022/06/08 09:22:15;;;;;;;5.20;1.50;;;36.50;1.00;;;;;;5072366;28;20196;-71
2022/06/08 09:24:47;;;;;;;9.40;2.08;;;36.80;1.00;;;;;;5073581;28;20217;-72
2022/06/08 09:27:22;;;;;;;7.50;6.32;;;36.60;1.00;;;;;;5072281;28;20201;-72
2022/06/08 09:30:06;;;;;;;5.90;3.42;;;36.80;1.00;;;;;;5071221;28;20154;-72
2022/06/08 09:32:44;;;;;;;3.63;1.83;;;36.70;1.00;;;;;;5070278;28;20193;-73
2022/06/08 09:35:19;;;;;;;6.72;2.15;;;36.40;1.00;;;;;;5071500;28;20193;-71
2022/06/08 09:37:46;;;;;;;3.67;1.65;;;35.10;1.00;;;;;;5069199;28;20648;-74
2022/06/08 09:40:37;;;;;;;7.27;2.90;;;34.20;1.00;;;;;;5079199;28;20176;-75
2022/06/08 09:43:33;;;;;;;4.87;1.80;;;33.80;1.00;;;;;;5083136;28;20176;-72
2022/06/08 09:46:05;;;;;;;2.87;1.53;;;33.60;1.00;;;;;;5090955;28;20645;-73
2022/06/08 09:51:57;;;;;;;6.97;2.47;;;33.00;1.00;;;;;;5091340;28;20698;-73
2022/06/08 09:54:31;;;;;;;7.33;3.13;;;34.10;1.00;;;;;;5091705;28;20637;-73
2022/06/08 09:57:20;;;;;;;4.68;1.88;;;35.50;1.00;;;;;;5090736;28;20545;-74
2022/06/08 10:00:01;;;;;;;3.35;1.95;;;35.30;1.00;;;;;;5091372;28;20248;-74
2022/06/08 10:03:23;;;;;;;3.80;1.60;;;34.50;1.00;;;;;;5096993;28;20544;-74
2022/06/08 10:06:01;;;;;;;7.45;2.17;;;34.40;1.00;;;;;;5010066;28;20188;-74
2022/06/08 10:08:49;;;;;;;4.28;1.45;;;35.40;1.00;;;;;;5012289;28;20250;-72
2022/06/08 10:11:42;;;;;;;3.72;1.67;;;34.70;1.00;;;;;;5024261;28;20305;-72
2022/06/08 10:14:16;;;;;;;4.05;2.75;;;35.50;1.00;;;;;;4995757;28;20575;-71
2022/06/08 10:16:56;;;;;;;4.22;1.48;;;36.60;1.00;;;;;;5000372;28;20200;-72
2022/06/08 10:19:32;;;;;;;2.83;1.42;;;36.70;1.00;;;;;;4984232;28;20168;-72
2022/06/08 10:22:01;;;;;;;2.60;1.58;;;36.70;1.00;;;;;;5004690;28;20200;-71
2022/06/08 10:24:47;;;;;;;2.40;1.30;;;37.10;1.00;;;;;;5004707;28;20172;-70
2022/06/08 10:27:34;;;;;;;3.80;1.43;;;33.50;1.00;;;;;;5004430;28;20255;-71
2022/06/08 10:30:18;;;;;;;3.10;1.70;;;30.90;1.00;;;;;;5003430;28;20176;-71
2022/06/08 10:32:50;;;;;;;5.50;1.97;;;31.20;1.00;;;;;;5006069;28;20461;-72
2022/06/08 10:35:35;;;;;;;3.63;1.70;;;31.50;1.00;;;;;;4974979;28;20454;-73
2022/06/08 10:38:03;;;;;;;6.07;1.40;;;32.00;1.00;;;;;;5068556;28;20404;-73
2022/06/08 10:40:46;;;;;;;6.27;1.77;;;33.70;1.00;;;;;;5079758;28;20540;-72
2022/06/08 10:43:25;;;;;;;4.47;2.50;;;35.20;1.00;;;;;;5090685;28;20165;-72
2022/06/08 10:46:02;;;;;;;4.32;1.70;;;35.60;1.00;;;;;;5090487;28;20590;-72
2022/06/08 10:48:36;;;;;;;5.27;1.70;;;35.50;1.00;;;;;;5090247;28;20168;-71
2022/06/08 10:51:24;;;;;;;7.32;1.67;;;34.50;1.00;;;;;;5089493;28;21068;-71
2022/06/08 10:56:38;;;;;;;3.77;2.00;;;33.70;1.00;;;;;;5090261;28;20272;-72
2022/06/08 10:59:03;;;;;;;6.50;1.65;;;34.50;1.00;;;;;;5089743;28;20169;-72
2022/06/08 11:01:42;;;;;;;4.20;1.20;;;34.90;1.00;;;;;;5089655;28;20181;-72
2022/06/08 11:04:31;;;;;;;4.43;1.30;;;34.50;1.00;;;;;;5088476;28;20172;-72
2022/06/08 11:07:07;;;;;;;2.85;1.50;;;35.10;1.00;;;;;;5083991;28;20192;-72
2022/06/08 11:09:36;;;;;;;3.97;1.63;;;34.40;1.00;;;;;;5089376;28;20179;-72
2022/06/08 11:12:13;;;;;;;3.70;1.63;;;32.20;1.00;;;;;;5088890;28;20188;-70
2022/06/08 11:14:47;;;;;;;3.93;1.43;;;29.60;1.00;;;;;;5087591;28;20458;-72
2022/06/08 11:17:38;;;;;;;6.10;1.80;;;29.00;1.00;;;;;;5088913;28;20513;-72
2022/06/08 11:20:25;;;;;;;3.60;1.60;;;30.60;1.00;;;;;;5088586;28;20410;-70
2022/06/08 11:23:12;;;;;;;5.53;1.60;;;31.90;1.00;;;;;;5088880;28;20939;-70
2022/06/08 11:25:52;;;;;;;7.40;1.97;;;31.90;1.00;;;;;;5089397;28;20400;-70
2022/06/08 11:28:43;;;;;;;2.53;1.53;;;31.60;1.00;;;;;;5089116;28;20430;-70
2022/06/08 11:31:32;;;;;;;4.47;1.70;;;28.60;1.00;;;;;;5088984;28;20439;-69
2022/06/08 11:34:13;;;;;;;9.97;2.20;;;26.70;1.00;;;;;;5083853;28;20510;-70
2022/06/08 11:36:53;;;;;;;5.80;1.83;;;26.00;1.00;;;;;;5088753;28;20454;-71
2022/06/08 11:39:32;;;;;;;9.70;1.83;;;25.30;1.00;;;;;;5088374;28;20439;-71
2022/06/08 11:42:09;;;;;;;3.60;1.60;;;25.50;1.00;;;;;;5088791;28;20439;-71
2022/06/08 11:44:40;;;;;;;2.53;1.40;;;25.20;1.00;;;;;;5089542;28;20445;-72
2022/06/08 11:47:19;;;;;;;3.47;1.80;;;24.60;1.00;;;;;;5089087;28;20410;-72
2022/06/08 11:49:54;;;;;;;4.73;1.43;;;24.80;1.00;;;;;;5088167;28;20404;-70
2022/06/08 11:52:24;;;;;;;4.57;1.50;;;25.30;1.00;;;;;;5069244;28;20485;-71
2022/06/08 11:55:11;;;;;;;5.37;2.07;;;25.30;1.00;;;;;;5069287;28;20448;-73
2022/06/08 11:57:47;;;;;;;6.67;1.93;;;25.40;1.00;;;;;;5068719;28;20907;-73
2022/06/08 12:00:22;;;;;;;5.00;2.00;;;26.00;1.00;;;;;;5075540;28;20411;-73
2022/06/08 12:02:55;;;;;;;6.37;1.77;;;25.90;1.00;;;;;;5088433;28;20410;-73
2022/06/08 12:05:24;;;;;;;6.50;2.47;;;25.90;1.00;;;;;;5088774;28;20400;-72
2022/06/08 12:08:01;;;;;;;3.20;1.90;;;25.60;1.00;;;;;;5088635;28;20434;-72
2022/06/08 12:10:31;;;;;;;9.87;1.90;;;24.80;1.00;;;;;;5089139;28;20479;-71
2022/06/08 12:12:58;;;;;;;2.47;1.60;;;24.90;1.00;;;;;;5089389;28;20884;-72
2022/06/08 12:15:43;;;;;;;5.40;1.73;;;24.90;1.00;;;;;;5088757;28;20879;-72
2022/06/08 12:18:20;;;;;;;3.27;1.40;;;25.40;1.00;;;;;;5088270;28;20526;-73
2022/06/08 12:20:48;;;;;;;4.80;1.83;;;26.00;1.00;;;;;;5092803;28;20422;-73
2022/06/08 12:23:14;;;;;;;11.23;2.37;;;26.40;1.00;;;;;;5092251;28;20448;-72
2022/06/08 12:25:40;;;;;;;12.87;2.87;;;26.80;1.00;;;;;;5093103;28;20407;-71
2022/06/08 12:28:11;;;;;;;3.23;1.77;;;27.10;1.00;;;;;;5092498;28;20170;-72
2022/06/08 12:30:56;;;;;;;4.03;1.40;;;27.40;1.00;;;;;;5092243;28;20403;-73
2022/06/08 12:33:29;;;;;;;5.00;1.97;;;27.60;1.00;;;;;;5092464;28;20764;-71
2022/06/08 12:36:11;;;;;;;34.63;6.20;;;26.90;1.00;;;;;;5092139;28;20554;-73
2022/06/08 12:38:39;;;;;;;16.90;2.87;;;26.40;1.00;;;;;;5091456;28;20850;-71
2022/06/08 12:41:10;;;;;;;5.67;2.23;;;26.70;1.00;;;;;;5082359;28;20465;-75
2022/06/08 12:43:38;;;;;;;7.37;1.80;;;27.10;1.00;;;;;;5072217;28;20439;-72
2022/06/08 12:46:21;;;;;;;3.93;1.67;;;27.20;1.00;;;;;;5072385;28;20533;-73
2022/06/08 12:49:01;;;;;;;8.77;2.13;;;27.50;1.00;;;;;;5071647;28;20391;-69
2022/06/08 12:51:29;;;;;;;9.90;2.00;;;27.60;1.00;;;;;;5085399;28;20548;-71
2022/06/08 12:53:57;;;;;;;4.50;2.30;;;27.60;1.00;;;;;;5092134;28;20483;-72
2022/06/08 12:56:23;;;;;;;7.27;1.97;;;27.70;1.00;;;;;;5091759;28;20439;-71
2022/06/08 12:58:50;;;;;;;9.57;2.53;;;27.90;1.00;;;;;;5091077;28;20764;-71
2022/06/08 13:01:18;;;;;;;2.90;1.73;;;27.90;1.00;;;;;;5076874;28;20946;-72
2022/06/08 13:03:44;;;;;;;4.80;2.23;;;27.60;1.00;;;;;;5071877;28;20412;-71
2022/06/08 13:06:11;;;;;;;3.33;1.80;;;27.40;1.00;;;;;;5071808;28;20392;-72
2022/06/08 13:08:37;;;;;;;7.23;1.90;;;27.30;1.00;;;;;;5070996;28;20409;-70
2022/06/08 13:11:06;;;;;;;5.20;1.80;;;27.20;1.00;;;;;;5069412;28;20443;-71
2022/06/08 13:13:36;;;;;;;5.20;2.03;;;27.50;1.00;;;;;;5071698;28;20939;-71
2022/06/08 13:16:06;;;;;;;9.03;2.37;;;27.50;1.00;;;;;;5086674;28;20451;-73
2022/06/08 13:18:33;;;;;;;3.93;2.03;;;27.50;1.00;;;;;;5090958;28;20716;-71
2022/06/08 13:20:59;;;;;;;9.10;2.03;;;27.20;1.00;;;;;;5090941;28;20526;-71
2022/06/08 13:23:25;;;;;;;10.10;2.10;;;27.30;1.00;;;;;;5089745;28;20426;-71